Time;durP1;ratioP1;P1;durP2;ratioP2;P2;SDS_P1;SDS_P2;PMS_P1;PMS_P2;Temp;Humidity;BMP_temperature;BMP_pressure;BME280_temperature;BME280_humidity;BME280_pressure;Samples;Min_cycle;Max_cycle;Signal;HPM_P1;HPM_P2
2024/04/10 00:01:14;;;;;;;5.60;1.70;;;;;;;14.50;56.73;99071.73;102943;1295;545051;-75
2024/04/10 00:04:55;;;;;;;4.70;1.50;;;;;;;14.42;56.83;99087.16;102968;1301;544811;-75
2024/04/10 00:08:49;;;;;;;15.80;2.00;;;;;;;14.37;57.05;99088.91;103278;1295;553266;-76
2024/04/10 00:12:06;;;;;;;5.50;1.40;;;;;;;14.22;57.21;99103.05;103041;1298;545951;-76
2024/04/10 00:15:45;;;;;;;24.70;1.40;;;;;;;14.09;57.31;99113.83;103245;1296;545512;-77
2024/04/10 00:19:27;;;;;;;20.20;1.80;;;;;;;13.93;57.31;99126.73;103409;1292;544984;-77
2024/04/10 00:23:05;;;;;;;8.80;1.30;;;;;;;13.60;57.67;99127.52;103231;1292;545445;-76
2024/04/10 00:26:50;;;;;;;8.60;1.00;;;;;;;13.31;57.69;99153.10;103542;1294;547817;-75
2024/04/10 00:30:19;;;;;;;16.80;1.40;;;;;;;13.21;57.94;99166.64;103213;1295;544970;-75
2024/04/10 00:34:04;;;;;;;3.50;1.00;;;;;;;12.99;58.27;99178.77;103561;1296;544859;-75
2024/04/10 00:37:40;;;;;;;5.80;1.00;;;;;;;12.73;58.40;99190.56;103644;1293;545817;-75
2024/04/10 00:41:16;;;;;;;8.20;1.20;;;;;;;12.52;58.58;99183.59;103505;1292;545020;-76
2024/04/10 00:44:56;;;;;;;7.60;1.00;;;;;;;12.37;58.46;99189.08;103387;1299;546173;-77
2024/04/10 00:48:41;;;;;;;3.20;1.00;;;;;;;12.29;58.60;99181.30;103471;1295;545542;-76
2024/04/10 00:52:14;;;;;;;5.70;1.00;;;;;;;12.20;58.65;99187.94;103662;1289;545984;-76
2024/04/10 00:55:55;;;;;;;4.90;1.70;;;;;;;12.14;58.66;99177.40;103242;1293;544919;-77
2024/04/10 00:59:33;;;;;;;1.10;1.10;;;;;;;12.10;58.94;99197.19;103086;1293;545702;-77
2024/04/10 01:03:10;;;;;;;3.80;1.20;;;;;;;12.04;59.07;99208.59;103175;1292;544980;-76
2024/04/10 01:06:51;;;;;;;5.10;1.20;;;;;;;12.02;59.03;99219.38;103239;1295;544954;-77
2024/04/10 01:10:29;;;;;;;3.30;1.40;;;;;;;12.00;59.21;99239.89;103444;1289;545462;-77
2024/04/10 01:14:07;;;;;;;3.60;1.40;;;;;;;12.03;59.15;99254.42;102959;1300;545040;-76
2024/04/10 01:17:43;;;;;;;6.20;1.60;;;;;;;12.06;59.25;99254.88;103175;1308;545437;-78
2024/04/10 01:21:24;;;;;;;5.00;1.60;;;;;;;11.98;59.25;99271.96;103261;1295;545105;-78
2024/04/10 01:25:05;;;;;;;5.40;1.40;;;;;;;11.89;59.48;99265.06;103263;1293;545547;-79
2024/04/10 01:28:40;;;;;;;6.90;1.50;;;;;;;11.82;59.45;99277.77;103012;1292;546257;-78
2024/04/10 01:32:16;;;;;;;4.20;1.20;;;;;;;11.77;59.46;99273.45;103207;1295;545504;-76
2024/04/10 01:35:55;;;;;;;3.80;1.40;;;;;;;11.71;59.77;99272.60;103662;1289;545053;-78
2024/04/10 01:39:37;;;;;;;4.10;1.10;;;;;;;11.68;59.73;99288.80;103163;1306;545519;-77
2024/04/10 01:43:34;;;;;;;4.90;1.70;;;;;;;11.71;59.81;99274.34;103002;1297;552127;-76
2024/04/10 01:46:53;;;;;;;4.70;1.40;;;;;;;11.67;59.97;99295.88;103594;1296;544889;-77
2024/04/10 01:50:30;;;;;;;5.20;1.40;;;;;;;11.60;60.03;99298.02;103168;1295;545738;-76
2024/04/10 01:54:06;;;;;;;5.70;1.60;;;;;;;11.55;60.17;99293.69;103184;1295;545914;-76
2024/04/10 01:57:48;;;;;;;4.50;1.50;;;;;;;11.53;60.27;99297.83;103161;1292;545105;-76
2024/04/10 02:01:25;;;;;;;7.80;1.60;;;;;;;11.51;60.27;99309.23;103174;1305;545639;-75
2024/04/10 02:05:03;;;;;;;4.70;1.40;;;;;;;11.49;60.54;99323.60;103374;1298;544945;-76
2024/04/10 02:08:41;;;;;;;4.50;1.70;;;;;;;11.45;60.50;99343.35;103006;1308;545050;-76
2024/04/10 02:12:18;;;;;;;3.90;1.40;;;;;;;11.41;60.90;99345.86;103370;1293;545000;-77
2024/04/10 02:15:56;;;;;;;4.00;1.50;;;;;;;11.34;60.76;99355.23;103200;1292;544927;-76
2024/04/10 02:19:32;;;;;;;6.70;1.60;;;;;;;11.31;61.03;99354.46;103071;1299;545077;-75
2024/04/10 02:23:11;;;;;;;3.30;1.60;;;;;;;11.24;61.12;99362.06;103480;1292;545516;-75
2024/04/10 02:26:53;;;;;;;4.60;1.60;;;;;;;11.23;61.21;99371.81;103425;1292;544994;-74
2024/04/10 02:30:31;;;;;;;2.80;1.70;;;;;;;11.23;61.33;99370.73;103459;1300;544813;-75
2024/04/10 02:34:08;;;;;;;4.60;1.80;;;;;;;11.22;61.54;99376.83;103334;1301;545045;-76
2024/04/10 02:37:44;;;;;;;6.60;1.80;;;;;;;11.13;61.53;99365.62;103095;1296;544973;-75
2024/04/10 02:41:24;;;;;;;4.00;1.60;;;;;;;11.07;61.70;99381.42;103748;1289;545046;-76
2024/04/10 02:45:06;;;;;;;5.90;1.90;;;;;;;11.05;62.04;99391.38;103031;1301;545505;-75
2024/04/10 02:48:44;;;;;;;5.40;2.40;;;;;;;11.02;62.20;99391.20;103124;1294;545558;-76
2024/04/10 02:52:21;;;;;;;4.60;2.20;;;;;;;10.99;62.28;99407.71;103130;1293;545990;-76
2024/04/10 02:55:59;;;;;;;5.80;1.90;;;;;;;10.93;62.30;99424.56;103024;1294;545000;-75
2024/04/10 02:59:36;;;;;;;4.20;1.90;;;;;;;10.89;62.68;99434.80;102969;1296;545436;-77
2024/04/10 03:03:12;;;;;;;3.60;2.20;;;;;;;10.88;62.73;99446.30;103147;1301;545512;-75
2024/04/10 03:06:53;;;;;;;3.80;1.90;;;;;;;10.89;62.72;99450.14;103169;1294;545050;-75
2024/04/10 03:10:35;;;;;;;3.80;2.00;;;;;;;10.88;62.90;99464.23;103494;1295;545127;-75
2024/04/10 03:14:12;;;;;;;5.10;1.90;;;;;;;10.85;63.11;99485.85;103281;1292;544977;-75
2024/04/10 03:17:48;;;;;;;4.50;2.00;;;;;;;10.85;63.13;99487.06;103261;1296;545107;-75
2024/04/10 03:21:30;;;;;;;3.00;2.20;;;;;;;10.89;63.28;99482.86;103030;1294;545012;-75
2024/04/10 03:25:07;;;;;;;4.40;2.00;;;;;;;10.87;63.46;99494.58;103146;1292;545054;-76
2024/04/10 03:28:45;;;;;;;6.30;2.20;;;;;;;10.81;63.49;99497.16;103113;1294;544978;-78
2024/04/10 03:32:22;;;;;;;5.50;2.60;;;;;;;10.79;63.74;99503.05;103147;1295;545873;-74
2024/04/10 03:36:04;;;;;;;5.40;2.20;;;;;;;10.74;63.81;99505.59;103197;1301;545592;-75
2024/04/10 03:39:44;;;;;;;6.10;2.40;;;;;;;10.74;63.94;99506.46;102987;1294;545740;-76
2024/04/10 03:43:28;;;;;;;6.90;3.00;;;;;;;10.74;64.06;99519.65;103210;1292;545305;-75
2024/04/10 03:47:04;;;;;;;5.80;2.20;;;;;;;10.73;64.02;99525.29;103215;1292;545024;-77
2024/04/10 03:50:42;;;;;;;5.20;2.00;;;;;;;10.74;64.05;99529.33;103365;1293;545658;-77
2024/04/10 03:54:19;;;;;;;9.20;3.00;;;;;;;10.73;64.06;99536.95;103562;1294;545067;-76
2024/04/10 03:57:57;;;;;;;4.90;1.80;;;;;;;10.72;64.05;99540.33;103108;1296;545055;-76
2024/04/10 04:01:35;;;;;;;4.30;2.00;;;;;;;10.69;64.34;99548.55;103123;1293;544939;-76
2024/04/10 04:05:11;;;;;;;4.40;1.70;;;;;;;10.71;64.42;99557.46;103218;1298;545017;-76
2024/04/10 04:08:52;;;;;;;3.70;2.10;;;;;;;10.69;64.54;99568.25;103287;1293;545041;-77
2024/04/10 04:12:32;;;;;;;19.10;3.10;;;;;;;10.72;64.57;99572.34;103196;1295;545823;-76
2024/04/10 04:16:08;;;;;;;8.70;1.90;;;;;;;10.72;64.53;99572.88;103027;1308;545496;-76
2024/04/10 04:19:46;;;;;;;6.30;1.50;;;;;;;10.72;64.62;99572.88;103099;1298;545610;-77
2024/04/10 04:23:25;;;;;;;7.90;1.80;;;;;;;10.69;64.54;99581.63;103058;1301;544952;-76
2024/04/10 04:27:00;;;;;;;5.00;2.00;;;;;;;10.65;64.59;99589.89;104014;1286;545715;-77
2024/04/10 04:30:46;;;;;;;6.10;2.00;;;;;;;10.67;64.69;99600.71;103398;1291;545052;-75
2024/04/10 04:34:19;;;;;;;4.60;1.90;;;;;;;10.68;64.70;99610.16;103776;1295;545024;-77
2024/04/10 04:37:57;;;;;;;10.60;2.60;;;;;;;10.69;64.66;99612.07;103660;1288;545732;-77
2024/04/10 04:41:35;;;;;;;6.70;2.30;;;;;;;10.76;64.83;99622.84;103181;1297;545261;-76
2024/04/10 04:45:13;;;;;;;9.10;2.70;;;;;;;10.74;64.72;99623.82;103081;1295;545004;-78
2024/04/10 04:48:50;;;;;;;5.90;2.10;;;;;;;10.72;64.75;99631.45;103302;1308;544911;-77
2024/04/10 04:52:28;;;;;;;11.70;2.70;;;;;;;10.73;64.95;99640.02;103372;1292;544835;-77
2024/04/10 04:56:04;;;;;;;8.90;2.80;;;;;;;10.77;64.80;99645.48;103308;1299;545049;-75
2024/04/10 04:59:47;;;;;;;17.20;3.50;;;;;;;10.81;64.88;99655.82;103399;1296;544859;-77
2024/04/10 05:07:01;;;;;;;8.10;2.60;;;;;;;11.37;68.80;99658.48;103195;1294;544935;-74
2024/04/10 06:02:50;;;;;;;9.40;2.80;;;;;;;12.13;65.53;99736.52;105759;1288;558586;-83
2024/04/10 06:05:45;;;;;;;6.60;2.10;;;;;;;12.02;65.40;99751.23;104114;1296;544905;-83
2024/04/10 06:09:17;;;;;;;6.90;2.80;;;;;;;11.84;65.58;99752.59;104826;1294;545485;-84
2024/04/10 06:12:58;;;;;;;6.80;2.20;;;;;;;11.73;65.78;99761.41;104497;1292;544798;-84
2024/04/10 06:16:33;;;;;;;4.80;1.90;;;;;;;11.69;65.66;99768.13;104760;1294;545727;-86
2024/04/10 06:20:16;;;;;;;6.00;2.50;;;;;;;11.68;65.84;99766.23;105649;1293;544941;-82
2024/04/10 06:23:46;;;;;;;8.30;2.30;;;;;;;11.77;66.73;99771.77;104718;1295;545029;-85
2024/04/10 06:27:28;;;;;;;6.60;2.40;;;;;;;12.41;67.74;99781.02;104398;1294;545114;-82
2024/04/10 06:31:07;;;;;;;4.70;1.50;;;;;;;13.12;66.79;99781.73;104586;1290;545122;-83
2024/04/10 06:34:46;;;;;;;9.10;2.20;;;;;;;13.57;65.56;99790.80;104694;1295;545046;-84
2024/04/10 06:38:21;;;;;;;6.20;1.80;;;;;;;13.56;64.17;99793.29;104619;1289;545203;-83
2024/04/10 06:42:01;;;;;;;4.40;1.80;;;;;;;13.04;63.80;99803.02;105074;1289;545042;-82
2024/04/10 06:45:37;;;;;;;5.00;1.70;;;;;;;12.44;64.16;99812.23;104691;1295;545682;-81
2024/04/10 06:49:33;;;;;;;3.80;1.80;;;;;;;12.11;64.41;99815.12;104308;1295;553213;-82
2024/04/10 06:52:52;;;;;;;13.30;2.30;;;;;;;11.80;64.76;99816.96;104395;1293;545832;-81
2024/04/10 06:56:31;;;;;;;4.00;1.90;;;;;;;11.57;64.54;99819.75;104706;1294;545023;-81
2024/04/10 07:10:54;;;;;;;6.60;2.00;;;;;;;11.67;64.60;99829.02;104817;1288;565258;-82
2024/04/10 07:13:45;;;;;;;3.80;1.50;;;;;;;11.61;64.60;99832.30;104609;1293;545576;-81
2024/04/10 07:27:48;;;;;;;6.40;2.00;;;;;;;11.69;64.32;99837.55;105952;1288;553730;-84
2024/04/10 07:41:05;;;;;;;8.10;2.40;;;;;;;11.85;64.01;99844.89;106294;1286;554026;-83
2024/04/10 07:43:53;;;;;;;6.50;2.00;;;;;;;11.63;63.95;99850.68;105270;1294;544709;-83
2024/04/10 07:47:35;;;;;;;11.80;2.30;;;;;;;11.50;64.28;99858.29;105606;1285;544934;-81
2024/04/10 07:51:15;;;;;;;9.80;2.10;;;;;;;11.47;64.29;99858.80;105373;1294;545999;-86
2024/04/10 07:54:51;;;;;;;6.10;1.90;;;;;;;11.53;64.44;99864.16;105896;1290;545595;-83
2024/04/10 07:58:26;;;;;;;9.80;2.10;;;;;;;11.68;64.36;99868.95;106144;1286;546118;-83
2024/04/10 08:02:06;;;;;;;7.40;1.70;;;;;;;11.68;64.11;99875.66;105346;1295;544763;-82
2024/04/10 08:05:54;;;;;;;5.50;1.80;;;;;;;11.68;64.16;99883.23;105559;1292;547922;-83
2024/04/10 08:09:24;;;;;;;6.30;1.50;;;;;;;11.55;63.93;99883.09;105596;1294;544858;-83
2024/04/10 08:13:06;;;;;;;4.90;1.30;;;;;;;11.48;63.99;99892.04;105332;1295;545065;-84
2024/04/10 08:16:43;;;;;;;4.60;1.90;;;;;;;11.54;64.09;99896.54;105271;1295;545897;-83
2024/04/10 08:20:30;;;;;;;13.60;3.40;;;;;;;11.59;63.86;99894.39;105382;1289;545022;-82
2024/04/10 08:24:09;;;;;;;6.20;1.70;;;;;;;11.62;63.97;99898.67;105094;1294;544884;-84
2024/04/10 08:38:03;;;;;;;5.80;1.90;;;;;;;12.03;63.83;99908.73;105848;1288;553645;-83
2024/04/10 08:40:54;;;;;;;5.80;1.40;;;;;;;12.19;63.47;99925.13;104632;1294;545082;-83
2024/04/10 08:44:36;;;;;;;5.50;1.90;;;;;;;12.26;63.68;99929.73;105038;1296;545954;-81
2024/04/10 08:48:17;;;;;;;11.30;5.50;;;;;;;12.22;63.57;99942.80;105314;1290;545771;-82
2024/04/10 08:51:58;;;;;;;4.60;2.40;;;;;;;12.27;63.52;99944.66;104981;1294;544745;-83
2024/04/10 08:55:42;;;;;;;10.10;2.70;;;;;;;12.39;63.49;99956.08;105390;1292;544970;-84
2024/04/10 08:59:18;;;;;;;7.60;2.90;;;;;;;12.47;63.23;99949.00;105183;1294;544951;-82
2024/04/10 09:02:58;;;;;;;8.80;3.40;;;;;;;12.45;63.33;99952.80;105215;1289;544800;-82
2024/04/10 09:06:35;;;;;;;5.60;1.90;;;;;;;12.55;63.29;99963.39;105016;1293;545495;-82
2024/04/10 09:10:12;;;;;;;4.20;1.70;;;;;;;12.57;63.22;99968.96;105061;1294;544612;-83
2024/04/10 09:13:47;;;;;;;7.80;1.90;;;;;;;12.70;63.31;99968.52;105003;1294;544646;-82
2024/04/10 09:17:29;;;;;;;13.00;3.10;;;;;;;12.73;62.86;99977.74;105146;1293;545243;-83
2024/04/10 09:31:50;;;;;;;9.20;2.30;;;;;;;12.90;62.60;99998.30;105085;1288;555606;-81
2024/04/10 09:34:39;;;;;;;3.30;1.80;;;;;;;13.00;62.59;100008.42;104464;1292;545712;-80
2024/04/10 09:38:15;;;;;;;8.70;2.40;;;;;;;12.96;62.38;100007.19;103879;1293;544968;-80
2024/04/10 09:42:00;;;;;;;5.70;1.60;;;;;;;12.90;62.44;100011.86;103169;1297;545048;-79
2024/04/10 09:45:57;;;;;;;7.40;2.20;;;;;;;12.84;62.87;100016.39;103399;1295;549121;-80
2024/04/10 09:49:25;;;;;;;5.00;2.30;;;;;;;12.94;63.11;100019.46;103715;1295;545301;-82
2024/04/10 09:53:33;;;;;;;3.90;1.80;;;;;;;13.08;63.40;100025.83;103560;1298;553327;-78
2024/04/10 09:56:56;;;;;;;2.80;1.60;;;;;;;13.20;63.31;100024.52;103467;1294;548936;-77
2024/04/10 10:00:29;;;;;;;3.70;1.80;;;;;;;13.32;63.32;100027.13;104000;1289;544800;-79
2024/04/10 10:04:05;;;;;;;5.50;1.80;;;;;;;13.36;63.25;100035.41;103872;1289;545358;-80
2024/04/10 10:07:43;;;;;;;3.30;1.60;;;;;;;13.37;63.67;100032.91;103274;1295;545326;-78
2024/04/10 10:11:20;;;;;;;4.40;2.00;;;;;;;13.69;63.85;100034.77;103680;1291;545089;-79
2024/04/10 10:15:09;;;;;;;5.90;1.80;;;;;;;14.11;63.63;100036.64;103381;1308;545930;-79
2024/04/10 10:18:56;;;;;;;7.10;1.80;;;;;;;14.45;62.80;100036.05;103431;1298;553225;-80
2024/04/10 10:22:15;;;;;;;7.10;2.50;;;;;;;14.51;62.84;100035.55;103358;1298;544976;-75
2024/04/10 10:25:52;;;;;;;6.30;2.40;;;;;;;14.69;62.80;100028.92;103291;1296;546138;-77
2024/04/10 10:29:30;;;;;;;6.70;2.50;;;;;;;14.91;62.53;100029.63;103356;1295;545912;-78
2024/04/10 10:33:23;;;;;;;6.10;2.30;;;;;;;15.02;62.19;100030.23;103329;1299;549272;-78
2024/04/10 10:36:50;;;;;;;6.30;2.80;;;;;;;15.16;61.94;100043.05;103225;1295;545951;-78
2024/04/10 10:40:27;;;;;;;3.50;1.60;;;;;;;15.29;61.79;100043.94;103348;1294;545890;-77
2024/04/10 10:44:03;;;;;;;6.90;2.10;;;;;;;15.19;61.18;100048.73;103239;1296;545147;-76
2024/04/10 10:47:45;;;;;;;4.80;2.10;;;;;;;15.16;61.37;100053.70;103076;1299;544834;-76
2024/04/10 10:51:27;;;;;;;5.60;1.70;;;;;;;15.06;60.88;100055.37;103766;1296;545047;-75
2024/04/10 10:55:12;;;;;;;5.10;2.20;;;;;;;15.02;61.10;100054.95;103482;1298;545235;-79
2024/04/10 10:59:07;;;;;;;7.20;2.40;;;;;;;15.09;60.53;100060.31;103258;1294;544987;-78
2024/04/10 11:02:32;;;;;;;5.10;1.80;;;;;;;15.03;60.60;100061.03;103817;1293;546219;-78
2024/04/10 11:06:11;;;;;;;6.60;2.10;;;;;;;14.98;60.02;100059.85;103593;1296;545073;-76
2024/04/10 11:09:47;;;;;;;6.40;2.10;;;;;;;14.86;60.28;100054.70;103542;1294;545629;-76
2024/04/10 11:13:25;;;;;;;6.50;1.70;;;;;;;15.07;60.20;100051.59;103314;1295;545038;-75
2024/04/10 11:17:05;;;;;;;5.10;2.00;;;;;;;15.06;59.66;100055.19;103390;1296;545031;-76
2024/04/10 11:20:41;;;;;;;7.30;1.90;;;;;;;15.17;59.68;100060.39;103463;1295;545412;-75
2024/04/10 11:24:17;;;;;;;7.10;1.90;;;;;;;15.22;59.29;100064.30;103449;1292;545654;-77
2024/04/10 11:27:57;;;;;;;7.90;1.70;;;;;;;15.39;59.30;100074.39;103249;1294;544676;-75
2024/04/10 11:31:32;;;;;;;6.20;2.10;;;;;;;15.19;58.83;100070.02;103450;1302;545053;-79
2024/04/10 11:35:13;;;;;;;4.90;1.70;;;;;;;15.18;58.97;100080.13;103447;1295;544951;-76
2024/04/10 11:38:53;;;;;;;2.90;1.80;;;;;;;15.36;59.09;100088.73;103408;1298;545435;-76
2024/04/10 11:42:33;;;;;;;4.30;1.80;;;;;;;15.54;58.89;100096.73;103994;1286;544676;-75
2024/04/10 11:46:18;;;;;;;2.40;1.40;;;;;;;15.80;58.60;100096.44;103866;1288;544779;-77
2024/04/10 11:49:55;;;;;;;4.20;2.00;;;;;;;15.99;58.46;100093.33;103444;1292;544762;-76
2024/04/10 12:17:51;;;;;;;3.00;1.30;;;;;;;17.30;56.74;100096.54;104961;1289;558148;-79
2024/04/10 12:20:38;;;;;;;7.90;2.00;;;;;;;17.45;56.22;100093.73;103780;1295;545139;-79
2024/04/10 12:24:21;;;;;;;3.60;1.10;;;;;;;17.33;55.77;100089.50;103815;1295;544861;-77
2024/04/10 12:27:56;;;;;;;3.00;1.30;;;;;;;17.27;55.77;100086.70;103711;1295;545059;-77
2024/04/10 12:31:37;;;;;;;11.90;2.00;;;;;;;17.33;55.00;100092.23;103556;1295;545334;-78
2024/04/10 12:49:28;;;;;;;3.70;1.70;;;;;;;17.40;54.36;100097.27;104809;1288;558301;-79
2024/04/10 12:52:12;;;;;;;3.90;1.50;;;;;;;17.25;53.45;100095.91;104908;1295;545272;-81
2024/04/10 13:06:24;;;;;;;4.00;1.60;;;;;;;17.03;52.99;100105.20;105306;1288;555063;-83
2024/04/10 13:09:12;;;;;;;5.30;1.50;;;;;;;17.14;52.90;100108.40;104889;1293;544950;-81
2024/04/10 13:12:48;;;;;;;8.50;1.80;;;;;;;17.36;52.83;100106.05;104259;1295;544991;-81
2024/04/10 13:16:28;;;;;;;11.60;2.50;;;;;;;17.41;52.19;100102.53;104528;1295;545049;-80
2024/04/10 13:20:11;;;;;;;4.70;1.60;;;;;;;17.30;52.00;100106.63;104924;1292;545576;-82
2024/04/10 13:34:13;;;;;;;10.50;2.10;;;;;;;17.20;51.76;100115.65;104554;1288;553878;-79
2024/04/10 13:37:04;;;;;;;8.90;2.10;;;;;;;17.22;51.64;100128.65;103964;1294;545001;-82
2024/04/10 14:32:36;;;;;;;6.00;2.20;;;;;;;18.58;50.04;100120.73;104775;1287;554701;-80
2024/04/10 14:35:25;;;;;;;3.50;1.70;;;;;;;18.70;49.60;100127.39;103623;1302;545096;-77
2024/04/10 14:39:06;;;;;;;5.10;1.90;;;;;;;18.31;49.12;100131.73;103756;1298;544990;-77
2024/04/10 14:42:46;;;;;;;3.10;1.60;;;;;;;17.98;49.18;100132.92;103729;1294;545917;-79
2024/04/10 14:56:59;;;;;;;9.60;2.00;;;;;;;17.64;49.01;100132.36;104741;1298;554222;-78
2024/04/10 14:59:53;;;;;;;3.40;1.70;;;;;;;17.35;48.97;100140.45;103923;1295;548478;-79
2024/04/10 15:03:28;;;;;;;3.20;1.60;;;;;;;17.14;48.83;100138.40;104046;1298;545017;-79
2024/04/10 15:07:07;;;;;;;2.90;1.40;;;;;;;17.13;49.06;100142.95;103851;1294;547944;-80
2024/04/10 15:10:55;;;;;;;3.50;1.80;;;;;;;17.30;49.05;100142.41;104175;1304;546361;-79
2024/04/10 15:14:18;;;;;;;2.00;1.50;;;;;;;17.30;48.61;100143.60;104130;1294;545034;-79
2024/04/10 15:18:04;;;;;;;1.90;1.60;;;;;;;17.28;48.73;100146.42;103819;1295;545042;-80
2024/04/10 15:21:54;;;;;;;3.20;1.40;;;;;;;17.25;48.43;100150.13;104544;1301;545917;-81
2024/04/10 15:25:33;;;;;;;7.80;2.60;;;;;;;16.91;48.40;100153.60;104121;1296;545956;-80
2024/04/10 15:29:06;;;;;;;4.30;2.30;;;;;;;16.73;48.44;100158.27;103762;1298;546890;-82
2024/04/10 15:32:34;;;;;;;3.40;1.80;;;;;;;16.66;48.36;100170.96;103858;1294;545602;-80
2024/04/10 15:36:13;;;;;;;4.80;2.00;;;;;;;16.70;48.44;100179.97;104270;1292;545182;-78
2024/04/10 15:39:48;;;;;;;3.60;1.80;;;;;;;16.71;48.20;100171.17;104058;1295;544855;-80
2024/04/10 15:54:11;;;;;;;4.30;1.60;;;;;;;16.82;48.40;100169.20;105949;1285;553805;-80
2024/04/10 15:56:59;;;;;;;3.80;2.60;;;;;;;16.71;48.25;100179.67;105286;1296;544868;-81
2024/04/10 16:00:42;;;;;;;7.30;2.70;;;;;;;16.43;48.30;100178.40;104432;1298;545934;-81
2024/04/10 16:04:26;;;;;;;3.90;2.00;;;;;;;16.11;48.23;100187.18;104178;1301;544844;-79
2024/04/10 16:08:10;;;;;;;3.40;2.00;;;;;;;15.86;48.38;100191.88;104311;1295;545021;-85
2024/04/10 16:11:43;;;;;;;5.60;1.90;;;;;;;15.77;48.56;100199.34;104389;1297;544951;-81
2024/04/10 16:15:30;;;;;;;3.60;2.10;;;;;;;15.68;48.54;100201.09;103983;1295;549059;-80
2024/04/10 16:19:03;;;;;;;12.20;2.60;;;;;;;15.51;48.59;100217.99;104218;1292;544780;-82
2024/04/10 16:22:57;;;;;;;4.50;2.00;;;;;;;15.34;48.76;100222.86;104451;1297;549056;-80
2024/04/10 16:26:30;;;;;;;5.90;2.40;;;;;;;15.28;49.14;100227.04;104569;1292;545432;-82
2024/04/10 16:30:12;;;;;;;7.10;2.70;;;;;;;15.29;49.23;100236.23;104333;1295;545199;-80
2024/04/10 16:33:52;;;;;;;8.10;2.60;;;;;;;15.32;49.25;100241.40;104970;1296;545030;-80
2024/04/10 16:37:29;;;;;;;5.60;2.60;;;;;;;15.27;49.46;100245.90;103918;1295;545471;-80
2024/04/10 16:41:10;;;;;;;6.60;3.20;;;;;;;15.17;49.32;100253.55;103909;1296;546499;-79
2024/04/10 16:44:58;;;;;;;6.40;3.30;;;;;;;15.13;49.41;100258.34;104252;1288;544947;-79
2024/04/10 16:48:46;;;;;;;5.90;2.30;;;;;;;15.03;49.47;100259.06;104173;1288;546869;-78
2024/04/10 16:52:10;;;;;;;4.90;2.50;;;;;;;14.90;49.62;100258.38;103590;1296;545020;-80
2024/04/10 16:55:53;;;;;;;4.20;2.40;;;;;;;14.84;49.73;100267.55;103396;1296;545317;-78
2024/04/10 16:59:36;;;;;;;5.00;2.40;;;;;;;14.71;49.65;100275.67;103274;1296;547541;-79
2024/04/10 17:03:11;;;;;;;7.60;3.00;;;;;;;14.55;49.79;100274.88;103329;1297;546227;-78
2024/04/10 17:06:45;;;;;;;6.00;2.70;;;;;;;14.46;49.88;100282.25;103646;1295;545707;-79
2024/04/10 17:10:23;;;;;;;4.50;2.30;;;;;;;14.39;49.94;100287.01;103350;1298;545019;-79
2024/04/10 17:52:14;;;;;;;8.80;3.30;;;;;;;14.37;50.33;100340.39;105498;1289;558926;-88
2024/04/10 17:55:06;;;;;;;14.10;3.80;;;;;;;14.22;50.48;100350.34;105953;1299;544715;-86
2024/04/10 17:58:50;;;;;;;8.40;3.20;;;;;;;14.12;50.60;100359.10;105235;1295;546085;-87
2024/04/10 18:02:20;;;;;;;9.00;3.90;;;;;;;14.02;50.62;100365.75;105440;1294;545079;-89
2024/04/10 18:06:11;;;;;;;9.80;3.70;;;;;;;13.91;50.68;100376.20;105454;1294;544880;-87
2024/04/10 18:09:39;;;;;;;5.90;2.90;;;;;;;13.78;50.77;100378.77;104847;1296;544958;-87
2024/04/10 18:13:16;;;;;;;7.10;2.90;;;;;;;13.68;50.79;100386.48;105038;1295;544934;-86
2024/04/10 18:16:55;;;;;;;6.10;2.50;;;;;;;13.62;50.86;100395.23;105854;1288;545602;-87
2024/04/10 18:20:32;;;;;;;6.10;2.50;;;;;;;13.54;50.96;100400.00;104498;1292;544965;-87
2024/04/10 18:24:10;;;;;;;5.00;2.70;;;;;;;13.46;51.00;100399.48;103764;1293;545474;-79
2024/04/10 18:27:48;;;;;;;4.40;2.50;;;;;;;13.39;51.05;100407.09;104322;1295;544870;-83
2024/04/10 18:31:26;;;;;;;6.80;2.60;;;;;;;13.32;51.33;100414.09;103455;1292;545492;-81
2024/04/10 18:35:08;;;;;;;7.30;3.60;;;;;;;13.28;51.46;100415.83;104181;1295;545629;-78
2024/04/10 18:38:40;;;;;;;7.60;3.10;;;;;;;13.24;51.54;100417.27;104067;1298;544985;-80
2024/04/10 18:42:20;;;;;;;6.60;2.50;;;;;;;13.21;51.53;100421.98;104648;1293;545345;-81
2024/04/10 18:46:04;;;;;;;7.80;2.80;;;;;;;13.20;51.46;100427.15;103527;1293;545023;-82
2024/04/10 18:49:39;;;;;;;6.00;2.80;;;;;;;13.17;51.73;100427.08;103568;1292;545139;-81
2024/04/10 18:53:21;;;;;;;9.30;2.90;;;;;;;13.12;51.57;100434.36;103691;1295;545308;-78
2024/04/10 18:57:05;;;;;;;7.80;2.70;;;;;;;13.09;51.68;100439.80;103524;1298;545602;-77
2024/04/10 19:00:34;;;;;;;4.90;2.30;;;;;;;13.05;51.63;100446.70;103787;1298;544907;-79
2024/04/10 19:04:16;;;;;;;7.90;3.00;;;;;;;13.03;51.83;100458.09;103971;1296;546074;-83
2024/04/10 19:07:59;;;;;;;4.70;2.50;;;;;;;12.99;51.87;100457.89;104229;1292;549171;-79
2024/04/10 19:11:37;;;;;;;10.90;3.80;;;;;;;13.01;51.89;100468.23;104086;1292;544996;-79
2024/04/10 19:15:09;;;;;;;10.30;3.70;;;;;;;13.00;51.96;100474.98;104108;1295;544979;-78
2024/04/10 19:18:47;;;;;;;5.40;3.20;;;;;;;12.98;52.13;100480.02;103805;1296;544828;-78
2024/04/10 19:22:24;;;;;;;12.60;6.40;;;;;;;12.94;52.16;100483.34;103887;1292;545055;-80
2024/04/10 19:26:01;;;;;;;15.00;4.00;;;;;;;12.90;52.49;100485.77;103821;1298;544985;-79
2024/04/10 19:29:45;;;;;;;12.50;4.20;;;;;;;12.84;52.38;100492.39;103595;1293;545686;-81
2024/04/10 19:33:23;;;;;;;11.90;3.50;;;;;;;12.78;52.48;100488.75;103393;1295;546080;-81
2024/04/10 19:37:04;;;;;;;9.00;3.90;;;;;;;12.74;52.50;100490.67;103453;1296;550275;-78
2024/04/10 19:40:37;;;;;;;10.70;3.50;;;;;;;12.67;52.65;100493.60;103612;1292;544989;-77
2024/04/10 19:44:19;;;;;;;6.80;3.60;;;;;;;12.60;52.67;100491.42;103303;1296;550027;-78
2024/04/10 19:58:21;;;;;;;16.10;8.20;;;;;;;12.63;52.80;100496.07;104532;1291;553752;-79
2024/04/10 20:01:12;;;;;;;16.40;7.90;;;;;;;12.59;52.94;100500.61;103722;1294;545066;-80
2024/04/10 20:04:50;;;;;;;16.00;6.90;;;;;;;12.52;53.06;100498.23;103939;1298;545321;-77
2024/04/10 20:08:25;;;;;;;11.80;6.40;;;;;;;12.39;53.30;100498.23;103416;1295;544982;-78
2024/04/10 20:12:07;;;;;;;12.50;6.30;;;;;;;12.30;53.34;100505.30;103402;1295;545457;-80
2024/04/10 20:15:46;;;;;;;9.90;5.40;;;;;;;12.21;53.59;100502.82;103351;1297;544807;-79
2024/04/10 20:19:23;;;;;;;11.40;6.50;;;;;;;12.14;53.67;100515.45;103474;1291;545128;-76
2024/04/10 20:22:58;;;;;;;15.90;11.10;;;;;;;12.03;53.79;100517.95;103305;1308;545514;-79
2024/04/10 20:26:43;;;;;;;11.10;6.80;;;;;;;11.91;53.86;100516.09;103275;1296;545162;-79
2024/04/10 20:30:15;;;;;;;13.20;6.10;;;;;;;11.82;54.05;100517.48;103248;1292;544968;-79
2024/04/10 20:33:57;;;;;;;9.10;5.10;;;;;;;11.74;54.24;100520.05;103529;1292;544591;-79
2024/04/10 20:37:35;;;;;;;10.20;5.80;;;;;;;11.65;54.38;100521.09;103401;1292;545418;-79
2024/04/10 20:41:15;;;;;;;9.00;5.60;;;;;;;11.57;54.37;100526.48;103943;1307;544905;-77
2024/04/10 20:44:54;;;;;;;9.30;6.10;;;;;;;11.51;54.50;100528.59;103438;1295;549214;-79
2024/04/10 20:48:30;;;;;;;8.50;5.90;;;;;;;11.46;54.60;100525.40;103347;1296;544833;-77
2024/04/10 20:52:06;;;;;;;10.40;6.90;;;;;;;11.39;54.66;100531.83;104448;1287;545714;-82
2024/04/10 20:55:44;;;;;;;7.80;5.70;;;;;;;11.32;54.76;100533.64;103886;1289;545405;-77
2024/04/10 20:59:24;;;;;;;7.60;5.40;;;;;;;11.24;55.06;100537.07;103307;1294;545627;-80
2024/04/10 21:02:59;;;;;;;8.10;4.70;;;;;;;11.17;55.05;100539.42;103593;1292;545187;-78
2024/04/10 22:12:38;;;;;;;5.10;4.10;;;;;;;10.37;57.60;100614.94;103143;1292;544948;-79
2024/04/10 22:16:17;;;;;;;6.90;4.20;;;;;;;10.34;57.74;100621.00;103008;1292;545632;-76
2024/04/10 22:27:09;;;;;;;9.70;4.50;;;;;;;10.24;58.15;100612.15;103065;1294;544993;-76